Time;durP1;ratioP1;P1;durP2;ratioP2;P2;SDS_P1;SDS_P2;PMS_P1;PMS_P2;Temp;Humidity;BMP_temperature;BMP_pressure;BME280_temperature;BME280_humidity;BME280_pressure;Samples;Min_cycle;Max_cycle;Signal;HPM_P1;HPM_P2
2022/06/21 00:00:32;;;;;;;7.00;2.97;;;;;;;;;;5035423;28;20458;-74
2022/06/21 00:03:01;;;;;;;11.20;3.10;;;;;;;;;;5037010;28;20608;-73
2022/06/21 00:05:31;;;;;;;6.07;3.03;;;;;;;;;;5035263;28;20454;-73
2022/06/21 00:08:01;;;;;;;7.60;3.17;;;;;;;;;;5038781;28;20457;-74
2022/06/21 00:10:34;;;;;;;6.13;3.13;;;;;;;;;;5055130;28;20924;-72
2022/06/21 00:13:02;;;;;;;9.00;3.57;;;;;;;;;;5054025;28;20476;-73
2022/06/21 00:15:32;;;;;;;6.30;3.70;;;;;;;;;;5054124;28;20877;-73
2022/06/21 00:18:00;;;;;;;16.80;3.53;;;;;;;;;;5054288;28;20544;-73
2022/06/21 00:20:28;;;;;;;12.33;3.60;;;;;;;;;;5054837;28;20702;-74
2022/06/21 00:22:56;;;;;;;7.93;3.40;;;;;;;;;;5046687;28;20533;-73
2022/06/21 00:25:27;;;;;;;5.80;3.27;;;;;;;;;;5034666;28;20700;-73
2022/06/21 00:27:55;;;;;;;12.40;5.20;;;;;;;;;;5034334;28;20498;-72
2022/06/21 00:30:23;;;;;;;12.40;4.20;;;;;;;;;;5034733;28;20465;-73
2022/06/21 00:32:54;;;;;;;6.63;3.03;;;;;;;;;;5033284;28;20462;-73
2022/06/21 00:35:25;;;;;;;8.73;3.50;;;;;;;;;;5034946;28;20454;-73
2022/06/21 00:37:55;;;;;;;8.10;3.70;;;;;;;;;;5036439;28;20494;-74
2022/06/21 00:40:25;;;;;;;13.13;3.83;;;;;;;;;;5034603;28;20732;-73
2022/06/21 00:42:56;;;;;;;15.10;4.40;;;;;;;;;;5034970;28;20502;-73
2022/06/21 00:45:32;;;;;;;12.43;4.67;;;;;;;;;;5034077;28;20493;-72
2022/06/21 00:48:03;;;;;;;10.10;3.87;;;;;;;;;;5033378;28;20462;-74
2022/06/21 00:50:32;;;;;;;13.73;6.00;;;;;;;;;;5033451;28;20465;-73
2022/06/21 00:53:03;;;;;;;14.80;6.00;;;;;;;;;;5034903;28;20478;-73
2022/06/21 00:55:44;;;;;;;10.50;3.07;;;;;;;;;;5033370;28;20454;-73
2022/06/21 00:58:13;;;;;;;12.30;3.77;;;;;;;;;;5035044;28;20563;-73
2022/06/21 01:00:47;;;;;;;13.87;4.63;;;;;;;;;;5033921;28;20910;-73
2022/06/21 01:03:21;;;;;;;10.50;3.43;;;;;;;;;;5036130;28;20902;-73
2022/06/21 01:05:49;;;;;;;10.93;3.27;;;;;;;;;;5034674;28;20500;-73
2022/06/21 01:08:19;;;;;;;8.20;3.30;;;;;;;;;;5034522;28;20524;-73
2022/06/21 01:10:48;;;;;;;11.33;3.67;;;;;;;;;;5033533;28;20454;-73
2022/06/21 01:13:18;;;;;;;12.73;3.73;;;;;;;;;;5037453;28;20465;-74
2022/06/21 01:15:51;;;;;;;13.10;3.67;;;;;;;;;;5055619;28;20488;-73
2022/06/21 01:18:22;;;;;;;13.53;3.70;;;;;;;;;;5054556;28;20461;-73
2022/06/21 01:20:52;;;;;;;10.60;3.57;;;;;;;;;;5054365;28;20481;-73
2022/06/21 01:23:25;;;;;;;13.07;3.60;;;;;;;;;;5054053;28;20492;-74
2022/06/21 01:26:02;;;;;;;6.60;3.97;;;;;;;;;;5053037;28;20502;-73
2022/06/21 01:28:33;;;;;;;7.27;3.60;;;;;;;;;;5054149;28;20456;-73
2022/06/21 01:31:01;;;;;;;11.77;4.20;;;;;;;;;;5052822;28;20539;-73
2022/06/21 01:33:31;;;;;;;9.63;3.90;;;;;;;;;;5053857;28;21010;-73
2022/06/21 01:36:00;;;;;;;7.07;3.63;;;;;;;;;;5053743;28;20461;-74
2022/06/21 01:38:32;;;;;;;9.87;3.97;;;;;;;;;;5052591;28;20855;-73
2022/06/21 01:41:02;;;;;;;9.57;3.63;;;;;;;;;;5054569;28;20951;-73
2022/06/21 01:43:33;;;;;;;17.07;4.63;;;;;;;;;;5053701;28;20473;-73
2022/06/21 01:46:06;;;;;;;25.63;4.93;;;;;;;;;;5054002;28;20526;-73
2022/06/21 01:48:36;;;;;;;19.43;4.10;;;;;;;;;;5054396;28;20488;-74
2022/06/21 01:51:06;;;;;;;15.20;4.10;;;;;;;;;;5054941;28;20548;-73
2022/06/21 01:53:35;;;;;;;13.30;4.60;;;;;;;;;;5053861;28;20460;-73
2022/06/21 01:56:05;;;;;;;15.53;4.30;;;;;;;;;;5053779;28;20735;-73
2022/06/21 01:58:36;;;;;;;12.20;4.10;;;;;;;;;;5054058;28;20847;-74
2022/06/21 02:01:07;;;;;;;12.50;4.10;;;;;;;;;;5053863;28;20517;-73
2022/06/21 02:03:37;;;;;;;10.60;5.70;;;;;;;;;;5053123;28;20481;-73
2022/06/21 02:06:09;;;;;;;14.00;4.03;;;;;;;;;;5053016;28;20875;-73
2022/06/21 02:08:40;;;;;;;12.30;4.50;;;;;;;;;;5052558;28;20449;-73
2022/06/21 02:11:12;;;;;;;15.30;3.90;;;;;;;;;;5053315;28;20461;-73
2022/06/21 02:13:43;;;;;;;14.77;4.20;;;;;;;;;;5054564;28;20473;-73
2022/06/21 02:16:15;;;;;;;10.70;4.83;;;;;;;;;;5053506;28;20639;-73
2022/06/21 02:18:50;;;;;;;11.40;4.20;;;;;;;;;;5053550;28;20461;-74
2022/06/21 02:21:19;;;;;;;14.83;4.13;;;;;;;;;;5052705;28;20482;-73
2022/06/21 02:23:51;;;;;;;12.40;4.17;;;;;;;;;;5053380;28;20491;-73
2022/06/21 02:26:19;;;;;;;18.10;4.73;;;;;;;;;;5053379;28;20909;-73
2022/06/21 02:28:49;;;;;;;13.43;4.20;;;;;;;;;;5050698;28;20811;-73
2022/06/21 02:31:17;;;;;;;7.00;4.47;;;;;;;;;;5054277;28;20492;-73
2022/06/21 02:33:46;;;;;;;8.93;4.30;;;;;;;;;;5053410;28;20461;-73
2022/06/21 02:36:16;;;;;;;8.43;3.57;;;;;;;;;;5052643;28;20469;-73
2022/06/21 02:38:45;;;;;;;15.27;4.90;;;;;;;;;;5053759;28;20450;-73
2022/06/21 02:41:15;;;;;;;11.07;5.30;;;;;;;;;;5051722;28;20874;-73
2022/06/21 02:43:44;;;;;;;14.70;5.07;;;;;;;;;;5054473;28;20576;-73
2022/06/21 02:46:16;;;;;;;8.20;3.80;;;;;;;;;;5051614;28;20460;-73
2022/06/21 02:48:46;;;;;;;8.57;5.13;;;;;;;;;;5053396;28;20464;-73
2022/06/21 02:51:15;;;;;;;10.30;4.83;;;;;;;;;;5054869;28;20742;-73
2022/06/21 02:53:47;;;;;;;18.13;4.37;;;;;;;;;;5054466;28;20492;-73
2022/06/21 02:56:18;;;;;;;14.27;4.40;;;;;;;;;;5054028;28;20501;-72
2022/06/21 02:58:47;;;;;;;12.80;4.27;;;;;;;;;;5053935;28;20457;-73
2022/06/21 03:01:21;;;;;;;6.63;4.07;;;;;;;;;;5053873;28;21170;-73
2022/06/21 03:03:49;;;;;;;14.53;4.60;;;;;;;;;;5057443;28;20722;-72
2022/06/21 03:06:19;;;;;;;8.30;3.90;;;;;;;;;;5056403;28;20475;-73
2022/06/21 03:08:51;;;;;;;10.87;3.90;;;;;;;;;;5056590;28;20868;-73
2022/06/21 03:11:20;;;;;;;15.00;4.40;;;;;;;;;;5057607;28;20556;-73
2022/06/21 03:13:49;;;;;;;11.47;4.03;;;;;;;;;;5054706;28;20671;-73
2022/06/21 03:16:22;;;;;;;20.87;4.70;;;;;;;;;;5056829;28;20464;-73
2022/06/21 03:18:52;;;;;;;9.40;4.70;;;;;;;;;;5054898;28;20640;-73
2022/06/21 03:21:24;;;;;;;10.53;5.17;;;;;;;;;;5056169;28;20473;-73
2022/06/21 03:23:51;;;;;;;11.70;4.00;;;;;;;;;;5056536;28;20460;-73
2022/06/21 03:26:19;;;;;;;12.57;4.20;;;;;;;;;;5056478;28;20465;-73
2022/06/21 03:28:47;;;;;;;10.43;5.10;;;;;;;;;;5057204;28;20484;-74
2022/06/21 03:31:18;;;;;;;10.20;4.40;;;;;;;;;;5056917;28;20466;-73
2022/06/21 03:33:52;;;;;;;9.00;4.30;;;;;;;;;;5056682;28;20537;-72
2022/06/21 03:36:21;;;;;;;7.90;3.37;;;;;;;;;;5054779;28;20463;-74
2022/06/21 03:38:50;;;;;;;11.33;4.57;;;;;;;;;;5055030;28;20555;-73
2022/06/21 03:44:07;;;;;;;11.67;4.03;;;;;;;;;;5054910;28;20710;-73
2022/06/21 03:46:40;;;;;;;9.37;3.83;;;;;;;;;;5055846;28;20465;-73
2022/06/21 03:49:13;;;;;;;11.33;4.20;;;;;;;;;;5053619;28;20468;-73
2022/06/21 03:51:43;;;;;;;10.80;3.80;;;;;;;;;;5053353;28;20535;-73
2022/06/21 03:54:14;;;;;;;9.57;4.10;;;;;;;;;;5055547;28;20491;-73
2022/06/21 03:56:44;;;;;;;8.63;3.43;;;;;;;;;;5054226;28;20553;-73
2022/06/21 03:59:13;;;;;;;7.13;3.50;;;;;;;;;;5053336;28;20881;-72
2022/06/21 04:01:44;;;;;;;16.90;4.73;;;;;;;;;;5055225;28;20465;-74
2022/06/21 04:04:15;;;;;;;10.27;4.40;;;;;;;;;;5055172;28;20928;-73
2022/06/21 04:06:46;;;;;;;9.33;4.90;;;;;;;;;;5054172;28;20559;-73
2022/06/21 04:09:18;;;;;;;16.40;4.03;;;;;;;;;;5054325;28;20497;-72
2022/06/21 04:11:49;;;;;;;11.17;4.13;;;;;;;;;;5055287;28;20798;-73
2022/06/21 04:14:20;;;;;;;10.03;3.57;;;;;;;;;;5052623;28;20511;-72
2022/06/21 04:16:50;;;;;;;10.80;3.47;;;;;;;;;;5054379;28;20556;-71
2022/06/21 04:19:25;;;;;;;8.47;4.00;;;;;;;;;;5054103;28;20726;-74
2022/06/21 04:21:56;;;;;;;12.40;4.10;;;;;;;;;;5053501;28;20453;-73
2022/06/21 04:24:27;;;;;;;8.93;3.87;;;;;;;;;;5054396;28;20450;-74
2022/06/21 04:26:57;;;;;;;7.37;2.87;;;;;;;;;;5054532;28;20465;-74
2022/06/21 04:29:29;;;;;;;10.57;3.20;;;;;;;;;;5054298;28;20948;-74
2022/06/21 04:31:59;;;;;;;10.33;3.27;;;;;;;;;;5053910;28;20505;-73
2022/06/21 04:34:32;;;;;;;9.30;3.40;;;;;;;;;;5054372;28;20816;-74
2022/06/21 04:37:02;;;;;;;15.53;3.50;;;;;;;;;;5053365;28;20912;-74
2022/06/21 04:39:33;;;;;;;13.00;5.83;;;;;;;;;;5053026;28;20452;-73
2022/06/21 04:42:04;;;;;;;12.60;3.27;;;;;;;;;;5053298;28;20534;-73
2022/06/21 04:44:36;;;;;;;12.47;3.60;;;;;;;;;;5052630;28;20480;-74
2022/06/21 04:47:07;;;;;;;12.27;3.20;;;;;;;;;;5053909;28;20560;-72
2022/06/21 04:49:40;;;;;;;12.83;4.70;;;;;;;;;;5053267;28;20465;-73
2022/06/21 04:52:10;;;;;;;9.10;3.43;;;;;;;;;;5053888;28;20772;-73
2022/06/21 04:54:39;;;;;;;9.97;3.70;;;;;;;;;;5051630;28;20824;-73
2022/06/21 04:57:09;;;;;;;12.40;2.37;;;;;;;;;;5052760;28;20512;-74
2022/06/21 04:59:39;;;;;;;11.37;2.43;;;;;;;;;;5052209;28;20488;-73
2022/06/21 05:02:13;;;;;;;14.47;3.53;;;;;;;;;;5052913;28;20507;-73
2022/06/21 05:04:43;;;;;;;6.90;2.43;;;;;;;;;;5051632;28;20518;-73
2022/06/21 05:07:13;;;;;;;11.70;2.40;;;;;;;;;;5051568;28;20469;-73
2022/06/21 05:09:42;;;;;;;7.70;1.80;;;;;;;;;;5050401;28;20696;-73
2022/06/21 05:12:13;;;;;;;11.33;2.63;;;;;;;;;;5049492;28;20485;-73
2022/06/21 05:14:42;;;;;;;7.57;2.30;;;;;;;;;;5049862;28;20491;-73
2022/06/21 05:17:14;;;;;;;9.00;2.57;;;;;;;;;;5031429;28;20742;-72
2022/06/21 05:19:45;;;;;;;9.43;2.27;;;;;;;;;;5039658;28;21137;-73
2022/06/21 05:22:17;;;;;;;6.40;2.17;;;;;;;;;;5031309;28;20462;-73
2022/06/21 05:24:45;;;;;;;8.03;2.43;;;;;;;;;;5031707;28;20458;-73
2022/06/21 05:27:18;;;;;;;8.73;2.17;;;;;;;;;;5031977;28;20492;-73
2022/06/21 05:29:49;;;;;;;8.97;2.10;;;;;;;;;;5029127;28;20502;-73
2022/06/21 05:32:19;;;;;;;10.17;2.50;;;;;;;;;;5030140;28;20879;-73
2022/06/21 05:34:49;;;;;;;10.43;2.33;;;;;;;;;;5031667;28;20489;-73
2022/06/21 05:37:23;;;;;;;5.40;2.20;;;;;;;;;;5030575;28;20501;-72
2022/06/21 05:39:51;;;;;;;9.13;2.33;;;;;;;;;;5028873;28;20861;-72
2022/06/21 05:42:24;;;;;;;7.33;2.80;;;;;;;;;;5029537;28;20581;-72
2022/06/21 05:44:53;;;;;;;7.00;2.97;;;;;;;;;;5029264;28;20894;-74
2022/06/21 05:47:24;;;;;;;9.60;2.03;;;;;;;;;;5032423;28;20466;-73
2022/06/21 05:49:54;;;;;;;8.97;1.93;;;;;;;;;;5032522;28;20536;-73
2022/06/21 05:52:26;;;;;;;4.77;2.03;;;;;;;;;;5029783;28;20785;-73
2022/06/21 05:54:59;;;;;;;7.80;2.70;;;;;;;;;;5031469;28;20529;-73
2022/06/21 05:57:30;;;;;;;8.50;2.27;;;;;;;;;;5031692;28;21123;-73
2022/06/21 05:59:59;;;;;;;5.73;1.70;;;;;;;;;;5029817;28;20805;-72
2022/06/21 06:02:30;;;;;;;10.77;2.23;;;;;;;;;;5027409;28;20465;-73
2022/06/21 06:05:03;;;;;;;8.13;2.27;;;;;;;;;;5030637;28;20469;-72
2022/06/21 06:07:32;;;;;;;12.40;3.73;;;;;;;;;;5030361;28;20458;-72
2022/06/21 06:10:00;;;;;;;6.87;1.73;;;;;;;;;;5039756;28;20461;-72
2022/06/21 06:12:33;;;;;;;7.80;2.30;;;;;;;;;;5043621;28;20445;-72
2022/06/21 06:15:04;;;;;;;8.13;2.13;;;;;;;;;;5050597;28;20505;-74
2022/06/21 06:17:39;;;;;;;12.20;3.30;;;;;;;;;;5050416;28;21019;-72
2022/06/21 06:20:13;;;;;;;7.50;2.40;;;;;;;;;;5049064;28;20517;-73
2022/06/21 06:22:43;;;;;;;8.80;2.33;;;;;;;;;;5048858;28;20748;-72
2022/06/21 06:25:16;;;;;;;9.47;2.37;;;;;;;;;;5051217;28;20453;-73
2022/06/21 06:27:56;;;;;;;11.73;2.67;;;;;;;;;;5050230;28;20454;-72
2022/06/21 06:30:32;;;;;;;7.57;1.90;;;;;;;;;;5031336;28;20458;-73
2022/06/21 06:33:05;;;;;;;7.87;2.40;;;;;;;;;;5031635;28;20498;-73
2022/06/21 06:35:37;;;;;;;12.00;2.40;;;;;;;;;;5029927;28;20482;-72
2022/06/21 06:38:10;;;;;;;7.63;2.27;;;;;;;;;;5032419;28;20479;-71
2022/06/21 06:40:39;;;;;;;7.17;2.27;;;;;;;;;;5035251;28;20458;-72
2022/06/21 06:43:11;;;;;;;6.70;2.20;;;;;;;;;;5035215;28;20855;-73
2022/06/21 06:45:39;;;;;;;11.87;3.13;;;;;;;;;;5043095;28;20449;-74
2022/06/21 06:48:23;;;;;;;6.43;2.30;;;;;;;;;;5040160;28;20885;-73
2022/06/21 06:50:58;;;;;;;8.03;2.33;;;;;;;;;;5044618;28;20464;-73
2022/06/21 06:53:34;;;;;;;8.00;2.30;;;;;;;;;;5037652;28;20493;-72
2022/06/21 06:56:04;;;;;;;7.53;2.40;;;;;;;;;;5049423;28;20476;-72
2022/06/21 06:58:35;;;;;;;6.53;2.07;;;;;;;;;;5053124;28;20480;-73
2022/06/21 07:01:05;;;;;;;8.23;1.90;;;;;;;;;;5054787;28;20503;-73
2022/06/21 07:03:34;;;;;;;9.50;1.90;;;;;;;;;;5065922;28;20893;-72
2022/06/21 07:06:19;;;;;;;8.87;2.50;;;;;;;;;;5041351;28;20473;-74
2022/06/21 07:08:49;;;;;;;9.20;2.37;;;;;;;;;;5045264;28;21072;-73
2022/06/21 07:11:23;;;;;;;10.27;2.50;;;;;;;;;;5036432;28;21126;-72
2022/06/21 07:13:51;;;;;;;6.83;1.63;;;;;;;;;;5035246;28;21021;-74
2022/06/21 07:16:21;;;;;;;7.63;2.13;;;;;;;;;;5033581;28;20904;-73
2022/06/21 07:18:50;;;;;;;10.67;3.60;;;;;;;;;;5038298;28;20900;-72
2022/06/21 07:21:21;;;;;;;8.70;1.93;;;;;;;;;;5053448;28;20449;-72
2022/06/21 07:24:02;;;;;;;8.60;2.00;;;;;;;;;;5048938;28;20452;-71
2022/06/21 07:26:32;;;;;;;7.70;2.10;;;;;;;;;;5052877;28;20986;-72
2022/06/21 07:29:02;;;;;;;8.53;2.00;;;;;;;;;;5037666;28;20476;-73
2022/06/21 07:31:32;;;;;;;7.83;2.10;;;;;;;;;;5034164;28;20462;-73
2022/06/21 07:34:04;;;;;;;9.70;2.60;;;;;;;;;;5034173;28;20462;-72
2022/06/21 07:36:37;;;;;;;8.73;3.93;;;;;;;;;;5033874;28;20526;-71
2022/06/21 07:39:09;;;;;;;8.93;2.10;;;;;;;;;;5034408;28;20560;-72
2022/06/21 07:41:40;;;;;;;7.90;2.03;;;;;;;;;;5036280;28;20557;-72
2022/06/21 07:44:12;;;;;;;10.73;2.27;;;;;;;;;;5033935;28;20482;-71
2022/06/21 07:46:45;;;;;;;18.20;3.93;;;;;;;;;;5039311;28;20925;-72
2022/06/21 07:49:16;;;;;;;7.63;2.27;;;;;;;;;;5036517;28;20473;-71
2022/06/21 07:51:47;;;;;;;5.60;1.70;;;;;;;;;;5033819;28;20458;-71
2022/06/21 07:54:17;;;;;;;6.43;1.90;;;;;;;;;;5041268;28;20883;-72
2022/06/21 07:56:47;;;;;;;7.20;1.77;;;;;;;;;;5044080;28;20980;-71
2022/06/21 07:59:22;;;;;;;8.67;1.60;;;;;;;;;;5041871;28;20553;-72
2022/06/21 08:07:34;;;;;;;7.20;2.23;;;;;;;;;;5039699;28;20510;-71
2022/06/21 08:10:06;;;;;;;13.67;3.03;;;;;;;;;;5045966;28;20557;-71
2022/06/21 08:12:34;;;;;;;8.17;2.03;;;;;;;;;;5034576;28;20814;-71
2022/06/21 08:15:03;;;;;;;6.03;2.27;;;;;;;;;;5033967;28;20520;-71
2022/06/21 08:17:39;;;;;;;9.10;3.30;;;;;;;;;;5031934;28;20546;-72
2022/06/21 08:20:14;;;;;;;8.20;2.13;;;;;;;;;;5034235;28;20513;-72
2022/06/21 08:22:47;;;;;;;6.40;2.20;;;;;;;;;;5039205;28;20453;-72
2022/06/21 08:25:23;;;;;;;7.00;1.87;;;;;;;;;;5039767;28;20570;-72
2022/06/21 08:27:54;;;;;;;7.70;2.23;;;;;;;;;;5049733;28;20461;-72
2022/06/21 08:30:25;;;;;;;10.73;2.40;;;;;;;;;;5045085;28;20851;-71
2022/06/21 08:32:58;;;;;;;5.70;1.73;;;;;;;;;;5033806;28;20524;-74
2022/06/21 08:35:32;;;;;;;7.87;2.37;;;;;;;;;;5038525;28;20478;-70
2022/06/21 08:38:07;;;;;;;5.03;1.70;;;;;;;;;;5033832;28;20449;-70
2022/06/21 08:40:50;;;;;;;10.23;1.80;;;;;;;;;;5037466;28;20744;-71
2022/06/21 08:43:29;;;;;;;5.93;1.50;;;;;;;;;;5032922;28;20462;-72
2022/06/21 08:46:16;;;;;;;4.40;1.40;;;;;;;;;;5035636;28;20477;-73
2022/06/21 08:49:00;;;;;;;6.73;1.90;;;;;;;;;;5034586;28;20482;-73
2022/06/21 08:51:47;;;;;;;6.80;1.60;;;;;;;;;;5043935;28;20466;-73
2022/06/21 08:54:25;;;;;;;3.60;1.50;;;;;;;;;;5040520;28;20506;-72
2022/06/21 08:56:59;;;;;;;6.97;1.77;;;;;;;;;;5038516;28;20499;-72
2022/06/21 08:59:33;;;;;;;7.37;2.53;;;;;;;;;;5041922;28;20458;-73
2022/06/21 09:02:16;;;;;;;3.93;1.57;;;;;;;;;;5046343;28;20477;-71
2022/06/21 09:04:49;;;;;;;5.70;1.87;;;;;;;;;;5039743;28;20474;-72
2022/06/21 09:07:30;;;;;;;10.83;2.03;;;;;;;;;;5048966;28;20509;-72
2022/06/21 09:10:16;;;;;;;4.70;1.67;;;;;;;;;;5054990;28;20468;-71
2022/06/21 09:12:56;;;;;;;4.20;1.30;;;;;;;;;;5022817;28;20641;-72
2022/06/21 09:15:30;;;;;;;6.43;1.40;;;;;;;;;;5031812;28;20458;-72
2022/06/21 09:18:09;;;;;;;3.30;1.20;;;;;;;;;;5032287;28;20836;-70
2022/06/21 09:20:53;;;;;;;5.60;1.47;;;;;;;;;;5036815;28;22047;-72
2022/06/21 09:23:28;;;;;;;3.33;1.37;;;;;;;;;;5045037;28;20488;-71
2022/06/21 09:26:16;;;;;;;3.13;1.10;;;;;;;;;;5039252;28;20691;-72
2022/06/21 09:29:00;;;;;;;4.03;1.30;;;;;;;;;;5043086;28;21105;-71
2022/06/21 09:31:43;;;;;;;7.20;1.30;;;;;;;;;;5036366;28;20471;-74
2022/06/21 09:34:22;;;;;;;3.70;1.57;;;;;;;;;;5042385;28;20438;-72
2022/06/21 09:36:59;;;;;;;6.10;1.40;;;;;;;;;;5041405;28;20481;-75
2022/06/21 09:39:34;;;;;;;3.67;1.20;;;;;;;;;;5049130;28;20483;-73
2022/06/21 09:42:07;;;;;;;4.27;1.13;;;;;;;;;;5032535;28;20573;-73
2022/06/21 09:44:48;;;;;;;6.90;1.23;;;;;;;;;;5035679;28;20473;-74
2022/06/21 09:47:21;;;;;;;6.60;2.67;;;;;;;;;;5033372;28;20527;-73
2022/06/21 09:50:03;;;;;;;6.83;1.50;;;;;;;;;;5048873;28;20461;-73
2022/06/21 09:52:59;;;;;;;6.30;1.47;;;;;;;;;;5052319;28;20457;-74
2022/06/21 09:55:38;;;;;;;7.47;1.73;;;;;;;;;;5032212;28;21054;-75
2022/06/21 09:58:13;;;;;;;5.30;1.40;;;;;;;;;;5031696;28;21145;-73
2022/06/21 10:00:48;;;;;;;6.63;1.73;;;;;;;;;;5043436;28;20465;-74
2022/06/21 10:03:43;;;;;;;5.07;1.57;;;;;;;;;;5044209;28;20468;-74
2022/06/21 10:06:31;;;;;;;5.20;1.40;;;;;;;;;;5033845;28;20545;-75
2022/06/21 10:09:11;;;;;;;2.83;1.10;;;;;;;;;;5040754;28;20488;-75
2022/06/21 10:11:47;;;;;;;5.40;1.40;;;;;;;;;;5031580;28;20541;-75
2022/06/21 10:14:31;;;;;;;3.90;1.20;;;;;;;;;;5048757;28;20487;-75
2022/06/21 10:17:17;;;;;;;6.13;2.53;;;;;;;;;;5040643;28;20545;-76
2022/06/21 10:19:58;;;;;;;5.23;1.50;;;;;;;;;;5037141;28;20519;-74
2022/06/21 10:22:33;;;;;;;9.63;1.47;;;;;;;;;;5036135;28;20454;-74
2022/06/21 10:25:14;;;;;;;4.40;1.40;;;;;;;;;;5039318;28;20477;-74
2022/06/21 10:28:08;;;;;;;4.47;1.03;;;;;;;;;;5041398;28;20898;-75
2022/06/21 10:30:59;;;;;;;3.80;1.17;;;;;;;;;;5019952;28;20471;-73
2022/06/21 10:33:40;;;;;;;6.73;1.27;;;;;;;;;;5034796;28;20867;-72
2022/06/21 10:36:30;;;;;;;4.63;1.30;;;;;;;;;;5039531;28;20486;-75
2022/06/21 10:39:16;;;;;;;6.30;2.63;;;;;;;;;;5034787;28;20461;-76
2022/06/21 10:45:05;;;;;;;5.90;1.53;;;;;;;;;;5057230;28;20704;-75
2022/06/21 10:47:43;;;;;;;2.80;1.03;;;;;;;;;;5054505;28;21113;-73
2022/06/21 10:50:36;;;;;;;5.23;1.20;;;;;;;;;;5046366;28;20461;-74
2022/06/21 10:53:20;;;;;;;5.23;1.50;;;;;;;;;;5042413;28;20583;-76
2022/06/21 10:57:09;;;;;;;3.20;1.13;;;;;;;;;;5037155;28;20718;-74
2022/06/21 10:58:58;;;;;;;5.00;1.30;;;;;;;;;;5035828;28;20469;-75
2022/06/21 11:01:29;;;;;;;3.03;1.03;;;;;;;;;;5053792;28;20475;-75
2022/06/21 11:04:13;;;;;;;3.10;1.10;;;;;;;;;;5055523;28;20465;-74
2022/06/21 11:06:50;;;;;;;5.67;1.43;;;;;;;;;;5054557;28;20468;-74
2022/06/21 11:09:21;;;;;;;5.13;1.47;;;;;;;;;;5050272;28;20556;-74
2022/06/21 11:11:56;;;;;;;9.00;1.63;;;;;;;;;;5054332;28;20449;-74
2022/06/21 11:14:34;;;;;;;6.30;1.60;;;;;;;;;;5055217;28;20460;-75
2022/06/21 11:17:11;;;;;;;3.10;1.17;;;;;;;;;;5036615;28;20481;-76
2022/06/21 11:19:44;;;;;;;6.30;1.77;;;;;;;;;;5035517;28;20554;-75
2022/06/21 11:22:24;;;;;;;4.27;1.40;;;;;;;;;;5034188;28;20522;-74
2022/06/21 11:24:59;;;;;;;4.00;1.50;;;;;;;;;;5033693;28;20462;-76
2022/06/21 11:27:43;;;;;;;3.10;1.20;;;;;;;;;;5033760;28;20470;-74
2022/06/21 11:30:16;;;;;;;5.00;1.57;;;;;;;;;;5033854;28;20554;-75
2022/06/21 11:32:47;;;;;;;3.67;1.73;;;;;;;;;;5034083;28;20458;-75
2022/06/21 11:35:26;;;;;;;8.20;2.03;;;;;;;;;;5033401;28;21218;-75
2022/06/21 11:38:05;;;;;;;4.70;1.63;;;;;;;;;;5034168;28;20493;-75
2022/06/21 11:40:37;;;;;;;4.17;1.10;;;;;;;;;;5034704;28;20469;-73
2022/06/21 11:43:16;;;;;;;6.10;1.30;;;;;;;;;;5033482;28;20462;-77
2022/06/21 11:45:50;;;;;;;5.43;1.23;;;;;;;;;;5036240;28;20868;-75
2022/06/21 11:48:34;;;;;;;4.00;0.90;;;;;;;;;;5048280;28;20470;-75
2022/06/21 11:51:19;;;;;;;3.20;0.90;;;;;;;;;;5035300;28;20462;-75
2022/06/21 11:53:53;;;;;;;3.10;1.20;;;;;;;;;;5051856;28;20456;-75
2022/06/21 11:56:25;;;;;;;6.63;1.67;;;;;;;;;;5040025;28;20490;-74
2022/06/21 11:58:55;;;;;;;5.17;1.67;;;;;;;;;;5040157;28;20466;-75
2022/06/21 12:01:36;;;;;;;3.90;1.23;;;;;;;;;;5050375;28;20470;-75
2022/06/21 12:04:24;;;;;;;4.33;1.00;;;;;;;;;;5045057;28;20457;-76
2022/06/21 12:06:56;;;;;;;3.17;1.03;;;;;;;;;;5033124;28;20485;-76
2022/06/21 12:09:35;;;;;;;5.77;1.20;;;;;;;;;;5047407;28;20543;-76
2022/06/21 12:12:24;;;;;;;4.43;1.30;;;;;;;;;;5047969;28;20489;-75
2022/06/21 12:15:05;;;;;;;4.30;0.90;;;;;;;;;;5028932;28;20469;-74
2022/06/21 12:17:43;;;;;;;5.00;1.10;;;;;;;;;;5039682;28;20882;-74
2022/06/21 12:20:16;;;;;;;5.10;1.10;;;;;;;;;;5052775;28;20504;-75
2022/06/21 12:22:50;;;;;;;12.50;8.00;;;;;;;;;;5053793;28;20548;-73
2022/06/21 12:25:21;;;;;;;6.27;3.33;;;;;;;;;;5044482;28;20473;-73
2022/06/21 12:28:08;;;;;;;7.93;4.57;;;;;;;;;;5034809;28;20480;-73
2022/06/21 12:30:39;;;;;;;7.00;3.70;;;;;;;;;;5042515;28;20533;-74
2022/06/21 12:33:08;;;;;;;6.87;1.33;;;;;;;;;;5037531;28;20470;-75
2022/06/21 12:35:47;;;;;;;3.60;1.10;;;;;;;;;;5034685;28;20510;-74
2022/06/21 12:38:26;;;;;;;3.20;1.57;;;;;;;;;;5034581;28;20489;-75
2022/06/21 12:41:06;;;;;;;2.27;0.70;;;;;;;;;;5043388;28;20473;-75
2022/06/21 12:43:48;;;;;;;7.57;2.30;;;;;;;;;;5043583;28;20878;-76
2022/06/21 12:46:20;;;;;;;4.73;1.50;;;;;;;;;;5035118;28;20458;-74
2022/06/21 12:48:59;;;;;;;4.33;1.20;;;;;;;;;;5038819;28;20477;-75
2022/06/21 12:51:47;;;;;;;4.10;1.30;;;;;;;;;;5047185;28;20492;-76
2022/06/21 12:54:28;;;;;;;6.93;2.13;;;;;;;;;;5044665;28;20523;-73
2022/06/21 12:57:18;;;;;;;4.10;1.10;;;;;;;;;;5038962;28;20607;-74
2022/06/21 13:00:00;;;;;;;4.57;0.90;;;;;;;;;;5032432;28;20458;-73
2022/06/21 13:02:34;;;;;;;3.03;0.80;;;;;;;;;;5039124;28;20957;-73
2022/06/21 13:05:18;;;;;;;3.13;1.10;;;;;;;;;;5037200;28;20471;-75
2022/06/21 13:08:15;;;;;;;5.67;2.50;;;;;;;;;;5038218;28;20469;-74
2022/06/21 13:10:49;;;;;;;4.20;0.90;;;;;;;;;;5047037;28;20499;-75
2022/06/21 13:13:42;;;;;;;2.70;0.80;;;;;;;;;;5042716;28;20534;-75
2022/06/21 13:16:16;;;;;;;3.30;0.90;;;;;;;;;;5033274;28;20458;-75
2022/06/21 13:19:16;;;;;;;2.37;0.97;;;;;;;;;;5032604;28;20557;-73
2022/06/21 13:21:54;;;;;;;3.77;1.20;;;;;;;;;;5036909;28;20470;-73
2022/06/21 13:24:30;;;;;;;4.17;1.10;;;;;;;;;;5037086;28;20569;-74
2022/06/21 13:27:10;;;;;;;4.90;1.70;;;;;;;;;;5046897;28;20501;-74
2022/06/21 13:29:49;;;;;;;4.97;1.20;;;;;;;;;;5050681;28;20450;-74
2022/06/21 13:32:19;;;;;;;6.83;1.40;;;;;;;;;;5050195;28;20541;-73
2022/06/21 13:34:52;;;;;;;5.40;1.00;;;;;;;;;;5050227;28;20472;-75
2022/06/21 13:37:22;;;;;;;6.33;1.70;;;;;;;;;;5050708;28;20485;-73
2022/06/21 13:39:56;;;;;;;3.30;1.27;;;;;;;;;;5035556;28;20462;-74
2022/06/21 13:42:41;;;;;;;5.43;3.40;;;;;;;;;;5047522;28;20480;-74
2022/06/21 13:45:25;;;;;;;2.80;1.13;;;;;;;;;;5050017;28;20489;-74
2022/06/21 13:47:56;;;;;;;5.70;1.37;;;;;;;;;;5048811;28;20481;-75
2022/06/21 13:50:29;;;;;;;3.40;1.43;;;;;;;;;;5050754;28;20466;-74
2022/06/21 13:53:02;;;;;;;5.90;1.10;;;;;;;;;;5033318;28;20459;-75
2022/06/21 13:55:34;;;;;;;3.43;1.00;;;;;;;;;;5041925;28;20470;-74
2022/06/21 13:58:13;;;;;;;2.70;1.00;;;;;;;;;;5039910;28;20920;-74
2022/06/21 14:00:48;;;;;;;6.60;1.57;;;;;;;;;;5048772;28;20468;-75
2022/06/21 14:03:26;;;;;;;9.63;1.70;;;;;;;;;;5030826;28;20535;-75
2022/06/21 14:06:00;;;;;;;4.63;1.40;;;;;;;;;;5049822;28;20483;-74
2022/06/21 14:08:31;;;;;;;6.23;1.43;;;;;;;;;;5052029;28;20514;-74
2022/06/21 14:11:07;;;;;;;4.87;1.20;;;;;;;;;;5050662;28;20550;-73
2022/06/21 14:13:46;;;;;;;5.77;1.10;;;;;;;;;;5041019;28;20473;-74
2022/06/21 14:16:21;;;;;;;5.97;2.30;;;;;;;;;;5041536;28;20892;-71
2022/06/21 14:18:57;;;;;;;7.13;1.57;;;;;;;;;;5029293;28;20481;-75
2022/06/21 14:21:33;;;;;;;4.73;2.07;;;;;;;;;;5033189;28;20473;-74
2022/06/21 14:24:05;;;;;;;5.73;1.33;;;;;;;;;;5031101;28;20836;-74
2022/06/21 14:26:36;;;;;;;4.07;1.30;;;;;;;;;;5035909;28;20523;-73
2022/06/21 14:29:15;;;;;;;6.13;2.07;;;;;;;;;;5045472;28;20894;-74
2022/06/21 14:31:47;;;;;;;2.40;1.10;;;;;;;;;;5036430;28;20537;-73
2022/06/21 14:34:20;;;;;;;4.53;1.20;;;;;;;;;;5035571;28;20528;-75
2022/06/21 14:36:50;;;;;;;4.70;1.50;;;;;;;;;;5053482;28;20457;-73
2022/06/21 14:39:21;;;;;;;2.77;1.00;;;;;;;;;;5051663;28;20527;-74
2022/06/21 14:41:56;;;;;;;4.27;1.27;;;;;;;;;;5052888;28;20453;-73
2022/06/21 14:44:43;;;;;;;4.30;1.10;;;;;;;;;;5051849;28;20766;-76
2022/06/21 14:47:19;;;;;;;5.30;1.70;;;;;;;;;;5033836;28;20481;-75
2022/06/21 14:49:52;;;;;;;3.97;1.20;;;;;;;;;;5032643;28;20500;-75
2022/06/21 14:52:28;;;;;;;4.77;1.53;;;;;;;;;;5032537;28;20478;-75
2022/06/21 14:55:04;;;;;;;5.30;2.23;;;;;;;;;;5032665;28;20514;-74
2022/06/21 14:57:50;;;;;;;4.93;2.13;;;;;;;;;;5037425;28;20527;-73
2022/06/21 15:00:22;;;;;;;3.90;1.20;;;;;;;;;;5034971;28;20445;-73
2022/06/21 15:02:59;;;;;;;4.37;1.40;;;;;;;;;;5035846;28;20540;-74
2022/06/21 15:05:34;;;;;;;3.03;1.17;;;;;;;;;;5035920;28;20456;-74
2022/06/21 15:08:06;;;;;;;3.10;1.33;;;;;;;;;;5034931;28;20472;-74
2022/06/21 15:10:38;;;;;;;3.53;1.17;;;;;;;;;;5033894;28;20711;-75
2022/06/21 15:13:09;;;;;;;3.23;1.60;;;;;;;;;;5035076;28;20573;-74
2022/06/21 15:15:38;;;;;;;3.90;1.30;;;;;;;;;;5033913;28;20466;-74
2022/06/21 15:18:19;;;;;;;2.60;1.20;;;;;;;;;;5033205;28;20616;-74
2022/06/21 15:20:50;;;;;;;5.53;1.30;;;;;;;;;;5043542;28;20514;-74
2022/06/21 15:23:30;;;;;;;3.60;1.10;;;;;;;;;;5054469;28;20471;-73
2022/06/21 15:26:11;;;;;;;2.87;1.00;;;;;;;;;;5040351;28;20462;-75
2022/06/21 15:28:41;;;;;;;5.40;2.10;;;;;;;;;;5033608;28;20576;-73
2022/06/21 15:31:18;;;;;;;3.60;1.07;;;;;;;;;;5037067;28;21060;-73